Terminal Aerodrome Forecast
Issued by NWS Central Illinois

Home | Current Version | Previous Version | Text Only | Print | Product List | Glossary On
Versions: 1 2 3 4 5 6 7 8 9 10 11 12
461
FTUS43 KILX 240520
TAFSPI
TAF
KSPI 240520Z 2406/2506 18008KT P6SM BKN250
     FM241500 19011KT P6SM SCT035 BKN250
     FM250000 17005KT P6SM SCT040 BKN100=

USA.gov is the U.S. government's official web portal to all federal, state and local government web resources and services.